sensor_id;sensor_type;location;lat;lon;timestamp;P1;durP1;ratioP1;P2;durP2;ratioP2
52934;SDS011;38802;50.198;19.796;2023-05-07T00:02:22;12.10;;;11.10;;
52934;SDS011;38802;50.198;19.796;2023-05-07T00:04:50;13.30;;;11.90;;
52934;SDS011;38802;50.198;19.796;2023-05-07T00:07:19;15.20;;;12.30;;
52934;SDS011;38802;50.198;19.796;2023-05-07T00:09:47;13.40;;;12.20;;
52934;SDS011;38802;50.198;19.796;2023-05-07T00:12:15;12.30;;;11.00;;
52934;SDS011;38802;50.198;19.796;2023-05-07T00:14:43;13.40;;;12.10;;
52934;SDS011;38802;50.198;19.796;2023-05-07T00:17:12;14.20;;;11.50;;
52934;SDS011;38802;50.198;19.796;2023-05-07T00:19:40;13.50;;;12.20;;
52934;SDS011;38802;50.198;19.796;2023-05-07T00:22:08;12.90;;;11.60;;
52934;SDS011;38802;50.198;19.796;2023-05-07T00:24:36;12.60;;;11.50;;
52934;SDS011;38802;50.198;19.796;2023-05-07T00:27:04;13.80;;;12.50;;
52934;SDS011;38802;50.198;19.796;2023-05-07T00:29:32;16.30;;;12.00;;
52934;SDS011;38802;50.198;19.796;2023-05-07T00:32:01;13.80;;;12.60;;
52934;SDS011;38802;50.198;19.796;2023-05-07T00:34:29;14.90;;;13.50;;
52934;SDS011;38802;50.198;19.796;2023-05-07T00:36:57;14.10;;;12.70;;
52934;SDS011;38802;50.198;19.796;2023-05-07T00:39:25;14.00;;;12.60;;
52934;SDS011;38802;50.198;19.796;2023-05-07T00:41:53;16.40;;;13.00;;
52934;SDS011;38802;50.198;19.796;2023-05-07T00:44:21;14.30;;;12.80;;
52934;SDS011;38802;50.198;19.796;2023-05-07T00:46:49;14.30;;;12.70;;
52934;SDS011;38802;50.198;19.796;2023-05-07T00:49:17;15.10;;;13.60;;
52934;SDS011;38802;50.198;19.796;2023-05-07T00:51:46;14.60;;;13.20;;
52934;SDS011;38802;50.198;19.796;2023-05-07T00:54:14;14.70;;;13.30;;
52934;SDS011;38802;50.198;19.796;2023-05-07T00:56:42;15.50;;;13.90;;
52934;SDS011;38802;50.198;19.796;2023-05-07T00:59:12;14.60;;;13.30;;
52934;SDS011;38802;50.198;19.796;2023-05-07T01:01:40;15.80;;;14.30;;
52934;SDS011;38802;50.198;19.796;2023-05-07T01:04:08;17.40;;;15.10;;
52934;SDS011;38802;50.198;19.796;2023-05-07T01:06:37;13.20;;;12.10;;
52934;SDS011;38802;50.198;19.796;2023-05-07T01:09:06;14.20;;;12.80;;
52934;SDS011;38802;50.198;19.796;2023-05-07T01:11:34;13.40;;;11.80;;
52934;SDS011;38802;50.198;19.796;2023-05-07T01:14:02;14.00;;;12.60;;
52934;SDS011;38802;50.198;19.796;2023-05-07T01:16:30;11.60;;;10.70;;
52934;SDS011;38802;50.198;19.796;2023-05-07T01:18:59;11.60;;;10.60;;
52934;SDS011;38802;50.198;19.796;2023-05-07T01:21:28;10.80;;;10.00;;
52934;SDS011;38802;50.198;19.796;2023-05-07T01:24:01;10.10;;;9.30;;
52934;SDS011;38802;50.198;19.796;2023-05-07T01:26:30;10.90;;;10.10;;
52934;SDS011;38802;50.198;19.796;2023-05-07T01:28:58;14.00;;;12.70;;
52934;SDS011;38802;50.198;19.796;2023-05-07T01:31:27;10.80;;;9.90;;
52934;SDS011;38802;50.198;19.796;2023-05-07T01:33:55;9.50;;;8.80;;
52934;SDS011;38802;50.198;19.796;2023-05-07T01:36:25;9.40;;;8.60;;
52934;SDS011;38802;50.198;19.796;2023-05-07T01:38:56;9.20;;;7.50;;
52934;SDS011;38802;50.198;19.796;2023-05-07T01:41:27;7.60;;;7.00;;
52934;SDS011;38802;50.198;19.796;2023-05-07T01:43:55;8.40;;;7.70;;
52934;SDS011;38802;50.198;19.796;2023-05-07T01:46:26;7.90;;;7.40;;
52934;SDS011;38802;50.198;19.796;2023-05-07T01:48:56;7.90;;;7.30;;
52934;SDS011;38802;50.198;19.796;2023-05-07T01:51:24;7.70;;;7.10;;
52934;SDS011;38802;50.198;19.796;2023-05-07T01:53:52;7.20;;;6.70;;
52934;SDS011;38802;50.198;19.796;2023-05-07T01:56:21;9.40;;;7.30;;
52934;SDS011;38802;50.198;19.796;2023-05-07T01:58:49;8.00;;;7.40;;
52934;SDS011;38802;50.198;19.796;2023-05-07T02:01:19;7.70;;;7.00;;
52934;SDS011;38802;50.198;19.796;2023-05-07T02:03:49;6.10;;;5.60;;
52934;SDS011;38802;50.198;19.796;2023-05-07T02:06:20;6.30;;;5.80;;
52934;SDS011;38802;50.198;19.796;2023-05-07T02:08:49;7.00;;;6.40;;
52934;SDS011;38802;50.198;19.796;2023-05-07T02:11:17;6.70;;;6.20;;
52934;SDS011;38802;50.198;19.796;2023-05-07T02:13:46;5.50;;;5.10;;
52934;SDS011;38802;50.198;19.796;2023-05-07T02:16:14;4.90;;;4.50;;
52934;SDS011;38802;50.198;19.796;2023-05-07T02:18:42;5.70;;;5.30;;
52934;SDS011;38802;50.198;19.796;2023-05-07T02:21:10;4.70;;;4.20;;
52934;SDS011;38802;50.198;19.796;2023-05-07T02:23:38;4.60;;;4.30;;
52934;SDS011;38802;50.198;19.796;2023-05-07T02:26:06;6.00;;;4.10;;
52934;SDS011;38802;50.198;19.796;2023-05-07T02:28:35;3.90;;;3.60;;
52934;SDS011;38802;50.198;19.796;2023-05-07T02:31:05;6.10;;;4.40;;
52934;SDS011;38802;50.198;19.796;2023-05-07T02:33:33;4.20;;;3.90;;
52934;SDS011;38802;50.198;19.796;2023-05-07T02:36:07;3.90;;;3.60;;
52934;SDS011;38802;50.198;19.796;2023-05-07T02:38:39;3.70;;;3.40;;
52934;SDS011;38802;50.198;19.796;2023-05-07T02:41:07;3.90;;;3.60;;
52934;SDS011;38802;50.198;19.796;2023-05-07T02:43:36;4.00;;;3.70;;
52934;SDS011;38802;50.198;19.796;2023-05-07T02:46:05;3.80;;;3.50;;
52934;SDS011;38802;50.198;19.796;2023-05-07T02:48:38;3.90;;;3.60;;
52934;SDS011;38802;50.198;19.796;2023-05-07T02:51:06;3.70;;;3.50;;
52934;SDS011;38802;50.198;19.796;2023-05-07T02:53:34;3.30;;;3.10;;
52934;SDS011;38802;50.198;19.796;2023-05-07T02:56:02;3.30;;;3.10;;
52934;SDS011;38802;50.198;19.796;2023-05-07T02:58:30;4.10;;;3.70;;
52934;SDS011;38802;50.198;19.796;2023-05-07T03:00:59;3.90;;;3.60;;
52934;SDS011;38802;50.198;19.796;2023-05-07T03:03:48;5.70;;;3.40;;
52934;SDS011;38802;50.198;19.796;2023-05-07T03:06:16;4.70;;;3.30;;
52934;SDS011;38802;50.198;19.796;2023-05-07T03:08:44;3.00;;;2.80;;
52934;SDS011;38802;50.198;19.796;2023-05-07T03:11:12;4.20;;;2.90;;
52934;SDS011;38802;50.198;19.796;2023-05-07T03:13:40;3.80;;;3.30;;
52934;SDS011;38802;50.198;19.796;2023-05-07T03:16:08;3.70;;;3.40;;
52934;SDS011;38802;50.198;19.796;2023-05-07T03:18:36;3.70;;;3.40;;
52934;SDS011;38802;50.198;19.796;2023-05-07T03:21:04;3.80;;;3.50;;
52934;SDS011;38802;50.198;19.796;2023-05-07T03:23:33;3.90;;;3.40;;
52934;SDS011;38802;50.198;19.796;2023-05-07T03:26:01;3.50;;;3.20;;
52934;SDS011;38802;50.198;19.796;2023-05-07T03:28:29;3.30;;;3.00;;
52934;SDS011;38802;50.198;19.796;2023-05-07T03:31:01;3.50;;;3.30;;
52934;SDS011;38802;50.198;19.796;2023-05-07T03:33:32;4.60;;;4.20;;
52934;SDS011;38802;50.198;19.796;2023-05-07T03:36:01;3.10;;;2.80;;
52934;SDS011;38802;50.198;19.796;2023-05-07T03:38:29;4.50;;;4.10;;
52934;SDS011;38802;50.198;19.796;2023-05-07T03:40:58;3.70;;;3.40;;
52934;SDS011;38802;50.198;19.796;2023-05-07T03:43:26;3.20;;;3.00;;
52934;SDS011;38802;50.198;19.796;2023-05-07T03:46:01;2.80;;;2.60;;
52934;SDS011;38802;50.198;19.796;2023-05-07T03:48:29;2.50;;;2.40;;
52934;SDS011;38802;50.198;19.796;2023-05-07T03:50:58;2.30;;;2.10;;
52934;SDS011;38802;50.198;19.796;2023-05-07T03:53:30;2.30;;;2.20;;
52934;SDS011;38802;50.198;19.796;2023-05-07T03:55:58;1.70;;;1.60;;
52934;SDS011;38802;50.198;19.796;2023-05-07T04:07:19;1.90;;;1.80;;
52934;SDS011;38802;50.198;19.796;2023-05-07T04:09:49;1.80;;;1.70;;
52934;SDS011;38802;50.198;19.796;2023-05-07T04:12:17;1.90;;;1.80;;
52934;SDS011;38802;50.198;19.796;2023-05-07T04:14:45;1.70;;;1.40;;
52934;SDS011;38802;50.198;19.796;2023-05-07T04:17:14;1.90;;;1.80;;
52934;SDS011;38802;50.198;19.796;2023-05-07T04:19:44;1.80;;;1.70;;
52934;SDS011;38802;50.198;19.796;2023-05-07T04:22:15;1.60;;;1.50;;
52934;SDS011;38802;50.198;19.796;2023-05-07T04:24:43;1.80;;;1.70;;
52934;SDS011;38802;50.198;19.796;2023-05-07T04:27:12;1.80;;;1.70;;
52934;SDS011;38802;50.198;19.796;2023-05-07T04:29:40;1.80;;;1.70;;
52934;SDS011;38802;50.198;19.796;2023-05-07T04:32:11;1.80;;;1.70;;
52934;SDS011;38802;50.198;19.796;2023-05-07T04:34:39;2.10;;;2.00;;
52934;SDS011;38802;50.198;19.796;2023-05-07T04:37:08;2.10;;;2.00;;
52934;SDS011;38802;50.198;19.796;2023-05-07T04:39:37;1.60;;;1.50;;
52934;SDS011;38802;50.198;19.796;2023-05-07T04:56:07;1.90;;;1.80;;
52934;SDS011;38802;50.198;19.796;2023-05-07T04:58:39;1.90;;;1.80;;
52934;SDS011;38802;50.198;19.796;2023-05-07T05:01:08;0.90;;;0.90;;
52934;SDS011;38802;50.198;19.796;2023-05-07T05:03:37;1.70;;;1.60;;
52934;SDS011;38802;50.198;19.796;2023-05-07T05:06:07;1.70;;;1.60;;
52934;SDS011;38802;50.198;19.796;2023-05-07T05:08:36;1.70;;;1.60;;
52934;SDS011;38802;50.198;19.796;2023-05-07T05:11:05;1.60;;;1.50;;
52934;SDS011;38802;50.198;19.796;2023-05-07T05:13:35;2.50;;;1.90;;
52934;SDS011;38802;50.198;19.796;2023-05-07T05:16:09;1.90;;;1.80;;
52934;SDS011;38802;50.198;19.796;2023-05-07T05:18:37;1.50;;;1.40;;
52934;SDS011;38802;50.198;19.796;2023-05-07T05:21:06;1.80;;;1.70;;
52934;SDS011;38802;50.198;19.796;2023-05-07T05:23:34;1.60;;;1.50;;
52934;SDS011;38802;50.198;19.796;2023-05-07T05:26:02;1.80;;;1.70;;
52934;SDS011;38802;50.198;19.796;2023-05-07T05:28:32;1.90;;;1.60;;
52934;SDS011;38802;50.198;19.796;2023-05-07T05:31:00;1.80;;;1.70;;
52934;SDS011;38802;50.198;19.796;2023-05-07T05:33:30;2.10;;;2.00;;
52934;SDS011;38802;50.198;19.796;2023-05-07T05:36:02;1.70;;;1.60;;
52934;SDS011;38802;50.198;19.796;2023-05-07T05:38:31;1.90;;;1.80;;
52934;SDS011;38802;50.198;19.796;2023-05-07T05:40:59;1.70;;;1.60;;
52934;SDS011;38802;50.198;19.796;2023-05-07T05:43:29;2.60;;;2.00;;
52934;SDS011;38802;50.198;19.796;2023-05-07T05:45:58;2.60;;;2.40;;
52934;SDS011;38802;50.198;19.796;2023-05-07T05:48:28;2.40;;;2.20;;
52934;SDS011;38802;50.198;19.796;2023-05-07T05:50:59;2.90;;;2.70;;
52934;SDS011;38802;50.198;19.796;2023-05-07T05:53:28;3.30;;;3.10;;
52934;SDS011;38802;50.198;19.796;2023-05-07T05:55:56;3.60;;;3.30;;
52934;SDS011;38802;50.198;19.796;2023-05-07T05:58:24;6.20;;;5.80;;
52934;SDS011;38802;50.198;19.796;2023-05-07T06:00:57;3.10;;;2.80;;
52934;SDS011;38802;50.198;19.796;2023-05-07T06:03:27;3.00;;;2.80;;
52934;SDS011;38802;50.198;19.796;2023-05-07T06:05:55;2.30;;;2.10;;
52934;SDS011;38802;50.198;19.796;2023-05-07T06:08:23;3.30;;;3.00;;
52934;SDS011;38802;50.198;19.796;2023-05-07T06:10:51;2.40;;;2.30;;
52934;SDS011;38802;50.198;19.796;2023-05-07T06:13:20;3.10;;;2.90;;
52934;SDS011;38802;50.198;19.796;2023-05-07T06:15:48;2.70;;;2.50;;
52934;SDS011;38802;50.198;19.796;2023-05-07T06:18:17;3.00;;;2.80;;
52934;SDS011;38802;50.198;19.796;2023-05-07T06:20:45;2.30;;;2.20;;
52934;SDS011;38802;50.198;19.796;2023-05-07T06:23:19;2.60;;;2.40;;
52934;SDS011;38802;50.198;19.796;2023-05-07T06:25:50;3.60;;;3.40;;
52934;SDS011;38802;50.198;19.796;2023-05-07T06:28:21;3.80;;;2.40;;
52934;SDS011;38802;50.198;19.796;2023-05-07T06:30:49;2.50;;;2.10;;
52934;SDS011;38802;50.198;19.796;2023-05-07T06:33:17;2.80;;;2.60;;
52934;SDS011;38802;50.198;19.796;2023-05-07T06:35:47;5.50;;;2.30;;
52934;SDS011;38802;50.198;19.796;2023-05-07T06:38:15;2.70;;;2.50;;
52934;SDS011;38802;50.198;19.796;2023-05-07T06:40:48;3.20;;;2.90;;
52934;SDS011;38802;50.198;19.796;2023-05-07T06:43:17;2.50;;;2.30;;
52934;SDS011;38802;50.198;19.796;2023-05-07T06:45:55;3.10;;;2.80;;
52934;SDS011;38802;50.198;19.796;2023-05-07T06:48:23;2.70;;;2.50;;
52934;SDS011;38802;50.198;19.796;2023-05-07T06:50:57;3.00;;;2.80;;
52934;SDS011;38802;50.198;19.796;2023-05-07T06:53:29;3.90;;;3.30;;
52934;SDS011;38802;50.198;19.796;2023-05-07T06:55:58;3.00;;;2.80;;
52934;SDS011;38802;50.198;19.796;2023-05-07T06:58:26;2.70;;;2.50;;
52934;SDS011;38802;50.198;19.796;2023-05-07T07:00:54;2.00;;;1.90;;
52934;SDS011;38802;50.198;19.796;2023-05-07T07:03:23;2.40;;;2.20;;
52934;SDS011;38802;50.198;19.796;2023-05-07T07:05:52;2.50;;;2.30;;
52934;SDS011;38802;50.198;19.796;2023-05-07T07:08:21;2.80;;;2.60;;
52934;SDS011;38802;50.198;19.796;2023-05-07T07:10:50;3.50;;;2.50;;
52934;SDS011;38802;50.198;19.796;2023-05-07T07:13:19;2.70;;;2.50;;
52934;SDS011;38802;50.198;19.796;2023-05-07T07:15:47;2.70;;;2.50;;
52934;SDS011;38802;50.198;19.796;2023-05-07T07:18:17;2.30;;;2.10;;
52934;SDS011;38802;50.198;19.796;2023-05-07T07:20:46;2.50;;;2.30;;
52934;SDS011;38802;50.198;19.796;2023-05-07T07:23:14;4.60;;;2.70;;
52934;SDS011;38802;50.198;19.796;2023-05-07T07:25:42;2.10;;;2.00;;
52934;SDS011;38802;50.198;19.796;2023-05-07T07:28:11;2.30;;;2.10;;
52934;SDS011;38802;50.198;19.796;2023-05-07T07:30:39;2.40;;;2.30;;
52934;SDS011;38802;50.198;19.796;2023-05-07T07:33:08;3.40;;;2.40;;
52934;SDS011;38802;50.198;19.796;2023-05-07T07:35:38;2.70;;;2.50;;
52934;SDS011;38802;50.198;19.796;2023-05-07T07:38:06;2.90;;;2.70;;
52934;SDS011;38802;50.198;19.796;2023-05-07T07:40:34;2.50;;;2.30;;
52934;SDS011;38802;50.198;19.796;2023-05-07T07:43:03;2.80;;;2.60;;
52934;SDS011;38802;50.198;19.796;2023-05-07T07:45:34;2.60;;;2.40;;
52934;SDS011;38802;50.198;19.796;2023-05-07T07:48:02;3.20;;;2.90;;
52934;SDS011;38802;50.198;19.796;2023-05-07T07:50:32;3.10;;;2.90;;
52934;SDS011;38802;50.198;19.796;2023-05-07T07:53:13;2.90;;;2.70;;
52934;SDS011;38802;50.198;19.796;2023-05-07T07:55:42;2.70;;;2.50;;
52934;SDS011;38802;50.198;19.796;2023-05-07T07:58:11;2.70;;;2.50;;
52934;SDS011;38802;50.198;19.796;2023-05-07T08:00:39;3.60;;;3.30;;
52934;SDS011;38802;50.198;19.796;2023-05-07T08:03:10;3.90;;;3.50;;
52934;SDS011;38802;50.198;19.796;2023-05-07T08:05:41;3.40;;;3.10;;
52934;SDS011;38802;50.198;19.796;2023-05-07T08:08:11;3.00;;;2.70;;
52934;SDS011;38802;50.198;19.796;2023-05-07T08:10:40;3.20;;;3.00;;
52934;SDS011;38802;50.198;19.796;2023-05-07T08:13:14;3.60;;;3.40;;
52934;SDS011;38802;50.198;19.796;2023-05-07T08:15:42;4.90;;;4.50;;
52934;SDS011;38802;50.198;19.796;2023-05-07T08:18:11;4.20;;;3.90;;
52934;SDS011;38802;50.198;19.796;2023-05-07T08:20:39;4.40;;;4.10;;
52934;SDS011;38802;50.198;19.796;2023-05-07T08:23:14;3.80;;;3.50;;
52934;SDS011;38802;50.198;19.796;2023-05-07T08:25:43;3.70;;;3.40;;
52934;SDS011;38802;50.198;19.796;2023-05-07T08:28:19;3.50;;;3.30;;
52934;SDS011;38802;50.198;19.796;2023-05-07T08:30:49;4.20;;;3.90;;
52934;SDS011;38802;50.198;19.796;2023-05-07T08:33:18;3.50;;;3.30;;
52934;SDS011;38802;50.198;19.796;2023-05-07T08:35:46;3.30;;;3.10;;
52934;SDS011;38802;50.198;19.796;2023-05-07T08:38:14;2.60;;;2.40;;
52934;SDS011;38802;50.198;19.796;2023-05-07T08:40:42;3.20;;;2.90;;
52934;SDS011;38802;50.198;19.796;2023-05-07T08:43:15;3.90;;;3.60;;
52934;SDS011;38802;50.198;19.796;2023-05-07T08:45:45;3.90;;;3.60;;
52934;SDS011;38802;50.198;19.796;2023-05-07T08:48:15;2.80;;;2.60;;
52934;SDS011;38802;50.198;19.796;2023-05-07T08:50:50;4.50;;;4.20;;
52934;SDS011;38802;50.198;19.796;2023-05-07T08:53:19;5.60;;;3.90;;
52934;SDS011;38802;50.198;19.796;2023-05-07T08:55:49;4.90;;;4.50;;
52934;SDS011;38802;50.198;19.796;2023-05-07T08:58:19;4.10;;;3.90;;
52934;SDS011;38802;50.198;19.796;2023-05-07T09:00:47;4.50;;;4.20;;
52934;SDS011;38802;50.198;19.796;2023-05-07T09:03:15;4.60;;;4.30;;
52934;SDS011;38802;50.198;19.796;2023-05-07T09:05:46;4.70;;;4.40;;
52934;SDS011;38802;50.198;19.796;2023-05-07T09:08:15;5.30;;;4.90;;
52934;SDS011;38802;50.198;19.796;2023-05-07T09:10:45;5.20;;;4.80;;
52934;SDS011;38802;50.198;19.796;2023-05-07T09:13:13;5.00;;;4.70;;
52934;SDS011;38802;50.198;19.796;2023-05-07T09:15:43;5.50;;;5.10;;
52934;SDS011;38802;50.198;19.796;2023-05-07T09:18:12;6.40;;;5.10;;
52934;SDS011;38802;50.198;19.796;2023-05-07T09:20:42;10.10;;;4.90;;
52934;SDS011;38802;50.198;19.796;2023-05-07T09:23:11;5.80;;;5.30;;
52934;SDS011;38802;50.198;19.796;2023-05-07T09:25:40;6.10;;;5.70;;
52934;SDS011;38802;50.198;19.796;2023-05-07T09:28:14;4.90;;;4.60;;
52934;SDS011;38802;50.198;19.796;2023-05-07T09:30:42;6.40;;;5.70;;
52934;SDS011;38802;50.198;19.796;2023-05-07T09:33:13;5.60;;;5.20;;
52934;SDS011;38802;50.198;19.796;2023-05-07T09:35:44;5.70;;;5.30;;
52934;SDS011;38802;50.198;19.796;2023-05-07T09:38:15;5.90;;;5.40;;
52934;SDS011;38802;50.198;19.796;2023-05-07T09:40:48;6.10;;;5.70;;
52934;SDS011;38802;50.198;19.796;2023-05-07T09:43:40;6.50;;;5.80;;
52934;SDS011;38802;50.198;19.796;2023-05-07T09:48:43;6.20;;;5.60;;
52934;SDS011;38802;50.198;19.796;2023-05-07T09:51:24;5.50;;;5.00;;
52934;SDS011;38802;50.198;19.796;2023-05-07T09:53:58;6.40;;;5.90;;
52934;SDS011;38802;50.198;19.796;2023-05-07T09:56:29;7.10;;;6.10;;
52934;SDS011;38802;50.198;19.796;2023-05-07T09:58:59;6.60;;;6.00;;
52934;SDS011;38802;50.198;19.796;2023-05-07T10:01:31;5.90;;;5.50;;
52934;SDS011;38802;50.198;19.796;2023-05-07T10:04:01;7.50;;;6.60;;
52934;SDS011;38802;50.198;19.796;2023-05-07T10:06:31;9.60;;;5.90;;
52934;SDS011;38802;50.198;19.796;2023-05-07T10:09:00;6.60;;;6.00;;
52934;SDS011;38802;50.198;19.796;2023-05-07T10:11:29;6.50;;;5.90;;
52934;SDS011;38802;50.198;19.796;2023-05-07T10:13:59;6.60;;;6.00;;
52934;SDS011;38802;50.198;19.796;2023-05-07T10:16:33;7.90;;;6.90;;
52934;SDS011;38802;50.198;19.796;2023-05-07T10:19:07;7.50;;;6.90;;
52934;SDS011;38802;50.198;19.796;2023-05-07T10:21:40;8.10;;;7.10;;
52934;SDS011;38802;50.198;19.796;2023-05-07T10:24:28;8.40;;;7.60;;
52934;SDS011;38802;50.198;19.796;2023-05-07T10:27:04;9.20;;;8.30;;
52934;SDS011;38802;50.198;19.796;2023-05-07T10:35:21;13.00;;;6.70;;
52934;SDS011;38802;50.198;19.796;2023-05-07T10:37:55;7.30;;;6.60;;
52934;SDS011;38802;50.198;19.796;2023-05-07T10:40:25;7.30;;;6.60;;
52934;SDS011;38802;50.198;19.796;2023-05-07T10:45:28;6.10;;;5.50;;
52934;SDS011;38802;50.198;19.796;2023-05-07T10:51:19;5.40;;;4.90;;
52934;SDS011;38802;50.198;19.796;2023-05-07T10:56:43;4.70;;;4.40;;
52934;SDS011;38802;50.198;19.796;2023-05-07T11:01:55;4.50;;;4.20;;
52934;SDS011;38802;50.198;19.796;2023-05-07T11:04:45;4.30;;;3.90;;
52934;SDS011;38802;50.198;19.796;2023-05-07T11:07:38;4.40;;;4.10;;
52934;SDS011;38802;50.198;19.796;2023-05-07T11:10:15;4.60;;;4.30;;
52934;SDS011;38802;50.198;19.796;2023-05-07T11:15:35;4.80;;;4.40;;
52934;SDS011;38802;50.198;19.796;2023-05-07T11:18:45;5.30;;;4.80;;
52934;SDS011;38802;50.198;19.796;2023-05-07T11:21:32;5.10;;;4.70;;
52934;SDS011;38802;50.198;19.796;2023-05-07T11:27:00;5.80;;;4.70;;
52934;SDS011;38802;50.198;19.796;2023-05-07T11:29:30;5.10;;;4.60;;
52934;SDS011;38802;50.198;19.796;2023-05-07T11:32:03;4.40;;;4.10;;
52934;SDS011;38802;50.198;19.796;2023-05-07T11:34:39;4.80;;;4.40;;
52934;SDS011;38802;50.198;19.796;2023-05-07T11:37:09;4.20;;;3.90;;
52934;SDS011;38802;50.198;19.796;2023-05-07T11:39:45;4.70;;;4.10;;
52934;SDS011;38802;50.198;19.796;2023-05-07T11:42:30;4.40;;;4.00;;
52934;SDS011;38802;50.198;19.796;2023-05-07T11:44:59;4.60;;;4.20;;
52934;SDS011;38802;50.198;19.796;2023-05-07T11:47:29;5.50;;;5.10;;
52934;SDS011;38802;50.198;19.796;2023-05-07T11:50:02;5.00;;;4.50;;
52934;SDS011;38802;50.198;19.796;2023-05-07T11:52:38;5.10;;;3.70;;
52934;SDS011;38802;50.198;19.796;2023-05-07T11:55:07;4.40;;;4.00;;
52934;SDS011;38802;50.198;19.796;2023-05-07T11:57:36;4.00;;;3.70;;
52934;SDS011;38802;50.198;19.796;2023-05-07T12:00:04;3.60;;;3.00;;
52934;SDS011;38802;50.198;19.796;2023-05-07T12:02:43;4.00;;;3.70;;
52934;SDS011;38802;50.198;19.796;2023-05-07T12:05:13;4.20;;;3.90;;
52934;SDS011;38802;50.198;19.796;2023-05-07T12:07:41;5.50;;;3.80;;
52934;SDS011;38802;50.198;19.796;2023-05-07T12:10:13;3.60;;;3.30;;
52934;SDS011;38802;50.198;19.796;2023-05-07T12:16:47;3.90;;;3.60;;
52934;SDS011;38802;50.198;19.796;2023-05-07T12:19:16;5.80;;;3.90;;
52934;SDS011;38802;50.198;19.796;2023-05-07T12:21:45;3.60;;;3.40;;
52934;SDS011;38802;50.198;19.796;2023-05-07T12:24:14;3.70;;;3.40;;
52934;SDS011;38802;50.198;19.796;2023-05-07T12:26:43;3.60;;;3.30;;
52934;SDS011;38802;50.198;19.796;2023-05-07T12:29:37;3.90;;;3.60;;
52934;SDS011;38802;50.198;19.796;2023-05-07T12:32:08;4.10;;;3.80;;
52934;SDS011;38802;50.198;19.796;2023-05-07T12:34:41;4.20;;;3.30;;
52934;SDS011;38802;50.198;19.796;2023-05-07T12:37:12;5.90;;;3.50;;
52934;SDS011;38802;50.198;19.796;2023-05-07T12:39:46;4.40;;;3.70;;
52934;SDS011;38802;50.198;19.796;2023-05-07T12:42:16;4.00;;;3.70;;
52934;SDS011;38802;50.198;19.796;2023-05-07T12:44:53;3.80;;;2.50;;
52934;SDS011;38802;50.198;19.796;2023-05-07T12:47:21;6.50;;;3.90;;
52934;SDS011;38802;50.198;19.796;2023-05-07T12:49:50;3.80;;;3.50;;
52934;SDS011;38802;50.198;19.796;2023-05-07T12:52:18;3.60;;;3.30;;
52934;SDS011;38802;50.198;19.796;2023-05-07T12:54:46;4.30;;;3.90;;
52934;SDS011;38802;50.198;19.796;2023-05-07T13:00:10;3.10;;;2.90;;
52934;SDS011;38802;50.198;19.796;2023-05-07T13:02:43;3.90;;;3.60;;
52934;SDS011;38802;50.198;19.796;2023-05-07T13:05:12;4.00;;;3.60;;
52934;SDS011;38802;50.198;19.796;2023-05-07T13:07:52;4.70;;;4.20;;
52934;SDS011;38802;50.198;19.796;2023-05-07T13:10:23;3.80;;;3.40;;
52934;SDS011;38802;50.198;19.796;2023-05-07T13:12:52;3.40;;;3.10;;
52934;SDS011;38802;50.198;19.796;2023-05-07T13:15:21;3.30;;;3.10;;
52934;SDS011;38802;50.198;19.796;2023-05-07T13:17:49;3.40;;;3.10;;
52934;SDS011;38802;50.198;19.796;2023-05-07T13:20:17;3.60;;;3.30;;
52934;SDS011;38802;50.198;19.796;2023-05-07T13:22:45;3.60;;;3.30;;
52934;SDS011;38802;50.198;19.796;2023-05-07T13:25:13;3.70;;;3.40;;
52934;SDS011;38802;50.198;19.796;2023-05-07T13:27:42;3.30;;;3.00;;
52934;SDS011;38802;50.198;19.796;2023-05-07T13:30:10;3.40;;;3.20;;
52934;SDS011;38802;50.198;19.796;2023-05-07T13:32:38;3.50;;;3.20;;
52934;SDS011;38802;50.198;19.796;2023-05-07T13:35:06;4.80;;;3.50;;
52934;SDS011;38802;50.198;19.796;2023-05-07T13:37:35;3.70;;;3.50;;
52934;SDS011;38802;50.198;19.796;2023-05-07T13:40:03;3.30;;;3.00;;
52934;SDS011;38802;50.198;19.796;2023-05-07T13:42:32;3.80;;;3.50;;
52934;SDS011;38802;50.198;19.796;2023-05-07T13:45:00;3.70;;;3.40;;
52934;SDS011;38802;50.198;19.796;2023-05-07T13:47:30;3.10;;;2.80;;
52934;SDS011;38802;50.198;19.796;2023-05-07T13:49:58;3.70;;;3.40;;
52934;SDS011;38802;50.198;19.796;2023-05-07T13:52:26;3.80;;;3.50;;
52934;SDS011;38802;50.198;19.796;2023-05-07T13:54:55;3.20;;;3.00;;
52934;SDS011;38802;50.198;19.796;2023-05-07T13:57:24;3.60;;;3.30;;
52934;SDS011;38802;50.198;19.796;2023-05-07T13:59:53;3.60;;;3.40;;
52934;SDS011;38802;50.198;19.796;2023-05-07T14:02:21;3.60;;;3.40;;
52934;SDS011;38802;50.198;19.796;2023-05-07T14:04:49;6.20;;;3.90;;
52934;SDS011;38802;50.198;19.796;2023-05-07T14:07:17;4.30;;;4.00;;
52934;SDS011;38802;50.198;19.796;2023-05-07T14:09:45;3.80;;;3.50;;
52934;SDS011;38802;50.198;19.796;2023-05-07T14:12:13;4.10;;;3.60;;
52934;SDS011;38802;50.198;19.796;2023-05-07T14:14:41;3.80;;;3.50;;
52934;SDS011;38802;50.198;19.796;2023-05-07T14:17:09;3.40;;;3.10;;
52934;SDS011;38802;50.198;19.796;2023-05-07T14:19:37;3.90;;;3.40;;
52934;SDS011;38802;50.198;19.796;2023-05-07T14:22:06;5.60;;;3.60;;
52934;SDS011;38802;50.198;19.796;2023-05-07T14:24:34;4.20;;;3.30;;
52934;SDS011;38802;50.198;19.796;2023-05-07T14:27:05;4.10;;;3.30;;
52934;SDS011;38802;50.198;19.796;2023-05-07T14:29:33;3.80;;;3.50;;
52934;SDS011;38802;50.198;19.796;2023-05-07T14:32:03;3.40;;;3.20;;
52934;SDS011;38802;50.198;19.796;2023-05-07T14:34:31;4.30;;;3.90;;
52934;SDS011;38802;50.198;19.796;2023-05-07T14:36:59;3.90;;;3.60;;
52934;SDS011;38802;50.198;19.796;2023-05-07T14:39:28;4.60;;;3.90;;
52934;SDS011;38802;50.198;19.796;2023-05-07T14:41:56;5.10;;;3.90;;
52934;SDS011;38802;50.198;19.796;2023-05-07T14:44:24;5.00;;;4.60;;
52934;SDS011;38802;50.198;19.796;2023-05-07T14:46:52;5.00;;;4.60;;
52934;SDS011;38802;50.198;19.796;2023-05-07T14:49:22;4.80;;;4.30;;
52934;SDS011;38802;50.198;19.796;2023-05-07T14:51:51;5.40;;;4.90;;
52934;SDS011;38802;50.198;19.796;2023-05-07T14:54:19;6.10;;;5.60;;
52934;SDS011;38802;50.198;19.796;2023-05-07T14:56:47;5.80;;;5.20;;
52934;SDS011;38802;50.198;19.796;2023-05-07T14:59:16;5.90;;;5.40;;
52934;SDS011;38802;50.198;19.796;2023-05-07T15:01:47;5.40;;;4.80;;
52934;SDS011;38802;50.198;19.796;2023-05-07T15:04:15;5.20;;;4.80;;
52934;SDS011;38802;50.198;19.796;2023-05-07T15:06:44;5.80;;;5.20;;
52934;SDS011;38802;50.198;19.796;2023-05-07T15:09:12;5.40;;;4.90;;
52934;SDS011;38802;50.198;19.796;2023-05-07T15:11:39;6.40;;;5.80;;
52934;SDS011;38802;50.198;19.796;2023-05-07T15:14:07;6.00;;;5.60;;
52934;SDS011;38802;50.198;19.796;2023-05-07T15:16:36;4.70;;;4.30;;
52934;SDS011;38802;50.198;19.796;2023-05-07T15:19:04;7.50;;;5.20;;
52934;SDS011;38802;50.198;19.796;2023-05-07T15:21:32;6.10;;;5.50;;
52934;SDS011;38802;50.198;19.796;2023-05-07T15:24:05;9.60;;;5.90;;
52934;SDS011;38802;50.198;19.796;2023-05-07T15:26:34;6.10;;;5.60;;
52934;SDS011;38802;50.198;19.796;2023-05-07T15:29:02;5.70;;;5.20;;
52934;SDS011;38802;50.198;19.796;2023-05-07T15:31:31;5.40;;;5.00;;
52934;SDS011;38802;50.198;19.796;2023-05-07T15:34:02;5.70;;;5.20;;
52934;SDS011;38802;50.198;19.796;2023-05-07T15:36:35;5.60;;;5.00;;
52934;SDS011;38802;50.198;19.796;2023-05-07T15:39:05;7.50;;;5.40;;
52934;SDS011;38802;50.198;19.796;2023-05-07T15:41:43;5.60;;;5.10;;
52934;SDS011;38802;50.198;19.796;2023-05-07T15:44:11;5.80;;;5.30;;